sensor_id;sensor_type;location;lat;lon;timestamp;temperature;humidity
19254;DHT22;9761;50.926;5.330;2023-01-15T00:00:07;7.40;99.90
19254;DHT22;9761;50.926;5.330;2023-01-15T00:02:36;7.50;99.90
19254;DHT22;9761;50.926;5.330;2023-01-15T00:05:04;7.50;99.90
19254;DHT22;9761;50.926;5.330;2023-01-15T00:07:33;7.50;99.90
19254;DHT22;9761;50.926;5.330;2023-01-15T00:10:01;7.50;99.90
19254;DHT22;9761;50.926;5.330;2023-01-15T00:12:28;7.50;99.90
19254;DHT22;9761;50.926;5.330;2023-01-15T00:14:55;7.60;99.90
19254;DHT22;9761;50.926;5.330;2023-01-15T00:17:22;7.60;99.90
19254;DHT22;9761;50.926;5.330;2023-01-15T00:19:49;7.60;99.90
19254;DHT22;9761;50.926;5.330;2023-01-15T00:22:16;7.60;99.90
19254;DHT22;9761;50.926;5.330;2023-01-15T00:24:45;7.70;99.90
19254;DHT22;9761;50.926;5.330;2023-01-15T00:27:29;7.70;99.90
19254;DHT22;9761;50.926;5.330;2023-01-15T00:30:06;7.70;99.90
19254;DHT22;9761;50.926;5.330;2023-01-15T00:32:34;7.60;99.90
19254;DHT22;9761;50.926;5.330;2023-01-15T00:35:01;7.50;99.90
19254;DHT22;9761;50.926;5.330;2023-01-15T00:37:29;7.50;99.90
19254;DHT22;9761;50.926;5.330;2023-01-15T00:39:57;7.60;99.90
19254;DHT22;9761;50.926;5.330;2023-01-15T00:42:24;7.60;99.90
19254;DHT22;9761;50.926;5.330;2023-01-15T00:44:51;7.60;99.90
19254;DHT22;9761;50.926;5.330;2023-01-15T00:47:18;7.50;99.90
19254;DHT22;9761;50.926;5.330;2023-01-15T00:49:46;7.40;99.90
19254;DHT22;9761;50.926;5.330;2023-01-15T00:52:14;7.50;99.90
19254;DHT22;9761;50.926;5.330;2023-01-15T00:54:41;7.40;99.90
19254;DHT22;9761;50.926;5.330;2023-01-15T00:57:10;7.40;99.90
19254;DHT22;9761;50.926;5.330;2023-01-15T00:59:37;7.50;99.90
19254;DHT22;9761;50.926;5.330;2023-01-15T01:02:04;7.60;99.90
19254;DHT22;9761;50.926;5.330;2023-01-15T01:04:31;7.60;99.90
19254;DHT22;9761;50.926;5.330;2023-01-15T01:06:58;7.50;99.90
19254;DHT22;9761;50.926;5.330;2023-01-15T01:09:25;7.60;99.90
19254;DHT22;9761;50.926;5.330;2023-01-15T01:11:52;7.50;99.90
19254;DHT22;9761;50.926;5.330;2023-01-15T01:14:21;7.50;99.90
19254;DHT22;9761;50.926;5.330;2023-01-15T01:16:48;7.40;99.90
19254;DHT22;9761;50.926;5.330;2023-01-15T01:19:17;7.40;99.90
19254;DHT22;9761;50.926;5.330;2023-01-15T01:21:46;7.40;99.90
19254;DHT22;9761;50.926;5.330;2023-01-15T01:24:16;7.40;99.90
19254;DHT22;9761;50.926;5.330;2023-01-15T01:26:44;7.50;99.90
19254;DHT22;9761;50.926;5.330;2023-01-15T01:29:11;7.50;99.90
19254;DHT22;9761;50.926;5.330;2023-01-15T01:31:41;7.50;99.90
19254;DHT22;9761;50.926;5.330;2023-01-15T01:34:09;7.50;99.90
19254;DHT22;9761;50.926;5.330;2023-01-15T01:36:39;7.40;99.90
19254;DHT22;9761;50.926;5.330;2023-01-15T01:39:08;7.50;99.90
19254;DHT22;9761;50.926;5.330;2023-01-15T01:41:38;7.50;99.90
19254;DHT22;9761;50.926;5.330;2023-01-15T01:44:06;7.50;99.90
19254;DHT22;9761;50.926;5.330;2023-01-15T01:46:35;7.50;99.90
19254;DHT22;9761;50.926;5.330;2023-01-15T01:49:07;7.50;99.90
19254;DHT22;9761;50.926;5.330;2023-01-15T01:51:39;7.50;99.90
19254;DHT22;9761;50.926;5.330;2023-01-15T01:54:07;7.50;99.90
19254;DHT22;9761;50.926;5.330;2023-01-15T01:56:35;7.60;99.90
19254;DHT22;9761;50.926;5.330;2023-01-15T01:59:04;7.60;99.90
19254;DHT22;9761;50.926;5.330;2023-01-15T02:01:32;7.60;99.90
19254;DHT22;9761;50.926;5.330;2023-01-15T02:03:59;7.60;99.90
19254;DHT22;9761;50.926;5.330;2023-01-15T02:06:28;7.70;99.90
19254;DHT22;9761;50.926;5.330;2023-01-15T02:08:56;7.70;99.90
19254;DHT22;9761;50.926;5.330;2023-01-15T02:11:24;7.70;99.90
19254;DHT22;9761;50.926;5.330;2023-01-15T02:13:57;7.70;99.90
19254;DHT22;9761;50.926;5.330;2023-01-15T02:16:32;7.70;99.90
19254;DHT22;9761;50.926;5.330;2023-01-15T02:19:10;7.70;99.90
19254;DHT22;9761;50.926;5.330;2023-01-15T02:21:49;7.60;99.90
19254;DHT22;9761;50.926;5.330;2023-01-15T02:24:24;7.70;99.90
19254;DHT22;9761;50.926;5.330;2023-01-15T02:27:07;7.70;99.90
19254;DHT22;9761;50.926;5.330;2023-01-15T02:29:46;7.60;99.90
19254;DHT22;9761;50.926;5.330;2023-01-15T02:32:17;7.60;99.90
19254;DHT22;9761;50.926;5.330;2023-01-15T02:34:48;7.60;99.90
19254;DHT22;9761;50.926;5.330;2023-01-15T02:37:21;7.60;99.90
19254;DHT22;9761;50.926;5.330;2023-01-15T02:39:51;7.60;99.90
19254;DHT22;9761;50.926;5.330;2023-01-15T02:42:21;7.60;99.90
19254;DHT22;9761;50.926;5.330;2023-01-15T02:44:51;7.50;99.90
19254;DHT22;9761;50.926;5.330;2023-01-15T02:47:23;7.50;99.90
19254;DHT22;9761;50.926;5.330;2023-01-15T02:49:52;7.40;99.90
19254;DHT22;9761;50.926;5.330;2023-01-15T02:52:23;7.50;99.90
19254;DHT22;9761;50.926;5.330;2023-01-15T02:54:56;7.50;99.90
19254;DHT22;9761;50.926;5.330;2023-01-15T02:57:29;7.50;99.90
19254;DHT22;9761;50.926;5.330;2023-01-15T02:59:58;7.50;99.90
19254;DHT22;9761;50.926;5.330;2023-01-15T03:02:32;7.50;99.90
19254;DHT22;9761;50.926;5.330;2023-01-15T03:05:04;7.50;99.90
19254;DHT22;9761;50.926;5.330;2023-01-15T03:07:36;7.50;99.90
19254;DHT22;9761;50.926;5.330;2023-01-15T03:10:07;7.40;99.90
19254;DHT22;9761;50.926;5.330;2023-01-15T03:12:42;7.50;99.90
19254;DHT22;9761;50.926;5.330;2023-01-15T03:15:24;7.40;99.90
19254;DHT22;9761;50.926;5.330;2023-01-15T03:18:08;7.40;99.90
19254;DHT22;9761;50.926;5.330;2023-01-15T03:20:40;7.40;99.90
19254;DHT22;9761;50.926;5.330;2023-01-15T03:23:12;7.40;99.90
19254;DHT22;9761;50.926;5.330;2023-01-15T03:25:44;7.40;99.90
19254;DHT22;9761;50.926;5.330;2023-01-15T03:28:15;7.40;99.90
19254;DHT22;9761;50.926;5.330;2023-01-15T03:30:43;7.40;99.90
19254;DHT22;9761;50.926;5.330;2023-01-15T03:33:10;7.30;99.90
19254;DHT22;9761;50.926;5.330;2023-01-15T03:35:44;7.30;99.90
19254;DHT22;9761;50.926;5.330;2023-01-15T03:38:12;7.20;99.90
19254;DHT22;9761;50.926;5.330;2023-01-15T03:40:49;7.20;99.90
19254;DHT22;9761;50.926;5.330;2023-01-15T03:43:23;7.20;99.90
19254;DHT22;9761;50.926;5.330;2023-01-15T03:46:13;7.30;99.90
19254;DHT22;9761;50.926;5.330;2023-01-15T03:48:45;7.20;99.90
19254;DHT22;9761;50.926;5.330;2023-01-15T03:51:18;7.20;99.90
19254;DHT22;9761;50.926;5.330;2023-01-15T03:53:48;7.20;99.90
19254;DHT22;9761;50.926;5.330;2023-01-15T03:56:20;7.20;99.90
19254;DHT22;9761;50.926;5.330;2023-01-15T03:58:55;7.20;99.90
19254;DHT22;9761;50.926;5.330;2023-01-15T04:01:25;7.20;99.90
19254;DHT22;9761;50.926;5.330;2023-01-15T04:03:55;7.20;99.90
19254;DHT22;9761;50.926;5.330;2023-01-15T04:06:23;7.20;99.90
19254;DHT22;9761;50.926;5.330;2023-01-15T04:08:51;7.20;99.90
19254;DHT22;9761;50.926;5.330;2023-01-15T04:11:22;7.20;99.90
19254;DHT22;9761;50.926;5.330;2023-01-15T04:13:53;7.20;99.90
19254;DHT22;9761;50.926;5.330;2023-01-15T04:16:24;7.20;99.90
19254;DHT22;9761;50.926;5.330;2023-01-15T04:18:54;7.10;99.90
19254;DHT22;9761;50.926;5.330;2023-01-15T04:21:21;7.10;99.90
19254;DHT22;9761;50.926;5.330;2023-01-15T04:23:49;7.10;99.90
19254;DHT22;9761;50.926;5.330;2023-01-15T04:26:17;7.20;99.90
19254;DHT22;9761;50.926;5.330;2023-01-15T04:28:44;7.20;99.90
19254;DHT22;9761;50.926;5.330;2023-01-15T04:31:12;7.10;99.90
19254;DHT22;9761;50.926;5.330;2023-01-15T04:33:39;7.10;99.90
19254;DHT22;9761;50.926;5.330;2023-01-15T04:36:07;7.10;99.90
19254;DHT22;9761;50.926;5.330;2023-01-15T04:38:35;7.10;99.90
19254;DHT22;9761;50.926;5.330;2023-01-15T04:41:04;7.10;99.90
19254;DHT22;9761;50.926;5.330;2023-01-15T04:43:48;7.10;99.90
19254;DHT22;9761;50.926;5.330;2023-01-15T04:46:36;7.10;99.90
19254;DHT22;9761;50.926;5.330;2023-01-15T04:49:05;7.10;99.90
19254;DHT22;9761;50.926;5.330;2023-01-15T04:51:33;7.00;99.90
19254;DHT22;9761;50.926;5.330;2023-01-15T04:54:02;7.00;99.90
19254;DHT22;9761;50.926;5.330;2023-01-15T04:56:30;7.00;99.90
19254;DHT22;9761;50.926;5.330;2023-01-15T04:58:59;7.00;99.90
19254;DHT22;9761;50.926;5.330;2023-01-15T05:01:27;7.00;99.90
19254;DHT22;9761;50.926;5.330;2023-01-15T05:03:55;7.00;99.90
19254;DHT22;9761;50.926;5.330;2023-01-15T05:06:23;7.00;99.90
19254;DHT22;9761;50.926;5.330;2023-01-15T05:08:50;7.00;99.90
19254;DHT22;9761;50.926;5.330;2023-01-15T05:11:17;7.00;99.90
19254;DHT22;9761;50.926;5.330;2023-01-15T05:13:44;6.90;99.90
19254;DHT22;9761;50.926;5.330;2023-01-15T05:16:14;6.80;99.90
19254;DHT22;9761;50.926;5.330;2023-01-15T05:18:42;6.80;99.90
19254;DHT22;9761;50.926;5.330;2023-01-15T05:21:15;6.80;99.90
19254;DHT22;9761;50.926;5.330;2023-01-15T05:23:45;6.80;99.90
19254;DHT22;9761;50.926;5.330;2023-01-15T05:26:12;6.80;99.90
19254;DHT22;9761;50.926;5.330;2023-01-15T05:28:39;6.80;99.90
19254;DHT22;9761;50.926;5.330;2023-01-15T05:31:07;6.80;99.90
19254;DHT22;9761;50.926;5.330;2023-01-15T05:33:35;6.80;99.90
19254;DHT22;9761;50.926;5.330;2023-01-15T05:36:03;6.80;99.90
19254;DHT22;9761;50.926;5.330;2023-01-15T05:38:31;6.70;99.90
19254;DHT22;9761;50.926;5.330;2023-01-15T05:40:58;6.70;99.90
19254;DHT22;9761;50.926;5.330;2023-01-15T05:43:25;6.70;99.90
19254;DHT22;9761;50.926;5.330;2023-01-15T05:45:52;6.70;99.90
19254;DHT22;9761;50.926;5.330;2023-01-15T05:48:19;6.70;99.90
19254;DHT22;9761;50.926;5.330;2023-01-15T05:50:46;6.70;99.90
19254;DHT22;9761;50.926;5.330;2023-01-15T05:53:13;6.70;99.90
19254;DHT22;9761;50.926;5.330;2023-01-15T05:55:42;6.70;99.90
19254;DHT22;9761;50.926;5.330;2023-01-15T05:58:09;6.70;99.90
19254;DHT22;9761;50.926;5.330;2023-01-15T06:00:35;6.70;99.90
19254;DHT22;9761;50.926;5.330;2023-01-15T06:03:02;6.70;99.90
19254;DHT22;9761;50.926;5.330;2023-01-15T06:05:29;6.60;99.90
19254;DHT22;9761;50.926;5.330;2023-01-15T06:07:57;6.60;99.90
19254;DHT22;9761;50.926;5.330;2023-01-15T06:10:24;6.70;99.90
19254;DHT22;9761;50.926;5.330;2023-01-15T06:12:52;6.60;99.90
19254;DHT22;9761;50.926;5.330;2023-01-15T06:15:20;6.60;99.90
19254;DHT22;9761;50.926;5.330;2023-01-15T06:17:48;6.60;99.90
19254;DHT22;9761;50.926;5.330;2023-01-15T06:20:16;6.70;99.90
19254;DHT22;9761;50.926;5.330;2023-01-15T06:22:43;6.60;99.90
19254;DHT22;9761;50.926;5.330;2023-01-15T06:25:10;6.60;99.90
19254;DHT22;9761;50.926;5.330;2023-01-15T06:27:37;6.60;99.90
19254;DHT22;9761;50.926;5.330;2023-01-15T06:30:07;6.60;99.90
19254;DHT22;9761;50.926;5.330;2023-01-15T06:32:34;6.60;99.90
19254;DHT22;9761;50.926;5.330;2023-01-15T06:35:01;6.60;99.90
19254;DHT22;9761;50.926;5.330;2023-01-15T06:37:28;6.60;99.90
19254;DHT22;9761;50.926;5.330;2023-01-15T06:39:55;6.60;99.90
19254;DHT22;9761;50.926;5.330;2023-01-15T06:42:22;6.60;99.90
19254;DHT22;9761;50.926;5.330;2023-01-15T06:45:12;6.50;99.90
19254;DHT22;9761;50.926;5.330;2023-01-15T06:47:56;6.50;99.90
19254;DHT22;9761;50.926;5.330;2023-01-15T06:50:24;6.40;99.90
19254;DHT22;9761;50.926;5.330;2023-01-15T06:52:51;6.40;99.90
19254;DHT22;9761;50.926;5.330;2023-01-15T06:55:18;6.20;99.90
19254;DHT22;9761;50.926;5.330;2023-01-15T06:57:45;6.20;99.90
19254;DHT22;9761;50.926;5.330;2023-01-15T07:00:15;6.00;99.90
19254;DHT22;9761;50.926;5.330;2023-01-15T07:02:42;5.80;99.90
19254;DHT22;9761;50.926;5.330;2023-01-15T07:05:09;5.70;99.90
19254;DHT22;9761;50.926;5.330;2023-01-15T07:07:36;5.60;99.90
19254;DHT22;9761;50.926;5.330;2023-01-15T07:10:04;5.50;99.90
19254;DHT22;9761;50.926;5.330;2023-01-15T07:12:31;5.50;99.90
19254;DHT22;9761;50.926;5.330;2023-01-15T07:15:00;5.40;99.90
19254;DHT22;9761;50.926;5.330;2023-01-15T07:17:28;5.50;99.90
19254;DHT22;9761;50.926;5.330;2023-01-15T07:19:55;5.50;99.90
19254;DHT22;9761;50.926;5.330;2023-01-15T07:22:22;5.60;99.90
19254;DHT22;9761;50.926;5.330;2023-01-15T07:24:49;5.60;99.90
19254;DHT22;9761;50.926;5.330;2023-01-15T07:27:16;5.60;99.90
19254;DHT22;9761;50.926;5.330;2023-01-15T07:29:43;5.60;99.90
19254;DHT22;9761;50.926;5.330;2023-01-15T07:32:10;5.60;99.90
19254;DHT22;9761;50.926;5.330;2023-01-15T07:34:39;5.50;99.90
19254;DHT22;9761;50.926;5.330;2023-01-15T07:37:06;5.50;99.90
19254;DHT22;9761;50.926;5.330;2023-01-15T07:39:33;5.50;99.90
19254;DHT22;9761;50.926;5.330;2023-01-15T07:42:01;5.50;99.90
19254;DHT22;9761;50.926;5.330;2023-01-15T07:44:45;5.40;99.90
19254;DHT22;9761;50.926;5.330;2023-01-15T07:47:29;5.50;99.90
19254;DHT22;9761;50.926;5.330;2023-01-15T07:50:17;5.50;99.90
19254;DHT22;9761;50.926;5.330;2023-01-15T07:52:45;5.50;99.90
19254;DHT22;9761;50.926;5.330;2023-01-15T07:55:12;5.50;99.90
19254;DHT22;9761;50.926;5.330;2023-01-15T07:57:40;5.50;99.90
19254;DHT22;9761;50.926;5.330;2023-01-15T08:00:11;5.60;99.90
19254;DHT22;9761;50.926;5.330;2023-01-15T08:02:39;5.50;99.90
19254;DHT22;9761;50.926;5.330;2023-01-15T08:05:07;5.60;99.90
19254;DHT22;9761;50.926;5.330;2023-01-15T08:07:38;5.60;99.90
19254;DHT22;9761;50.926;5.330;2023-01-15T08:10:07;5.60;99.90
19254;DHT22;9761;50.926;5.330;2023-01-15T08:12:34;5.70;99.90
19254;DHT22;9761;50.926;5.330;2023-01-15T08:15:21;5.70;99.90
19254;DHT22;9761;50.926;5.330;2023-01-15T08:17:49;5.70;99.90
19254;DHT22;9761;50.926;5.330;2023-01-15T08:20:18;5.70;99.90
19254;DHT22;9761;50.926;5.330;2023-01-15T08:22:47;5.70;99.90
19254;DHT22;9761;50.926;5.330;2023-01-15T08:25:16;5.60;99.90
19254;DHT22;9761;50.926;5.330;2023-01-15T08:27:44;5.60;99.90
19254;DHT22;9761;50.926;5.330;2023-01-15T08:30:13;5.60;99.90
19254;DHT22;9761;50.926;5.330;2023-01-15T08:32:40;5.60;99.90
19254;DHT22;9761;50.926;5.330;2023-01-15T08:35:08;5.60;99.90
19254;DHT22;9761;50.926;5.330;2023-01-15T08:37:36;5.60;99.90
19254;DHT22;9761;50.926;5.330;2023-01-15T08:40:05;5.60;99.90
19254;DHT22;9761;50.926;5.330;2023-01-15T08:42:32;5.60;99.90
19254;DHT22;9761;50.926;5.330;2023-01-15T08:44:59;5.60;99.90
19254;DHT22;9761;50.926;5.330;2023-01-15T08:47:26;5.60;99.90
19254;DHT22;9761;50.926;5.330;2023-01-15T08:49:53;5.60;99.90
19254;DHT22;9761;50.926;5.330;2023-01-15T08:52:23;5.70;99.90
19254;DHT22;9761;50.926;5.330;2023-01-15T08:54:50;5.70;99.90
19254;DHT22;9761;50.926;5.330;2023-01-15T08:57:19;5.70;99.90
19254;DHT22;9761;50.926;5.330;2023-01-15T08:59:46;5.70;99.90
19254;DHT22;9761;50.926;5.330;2023-01-15T09:02:14;5.80;99.90
19254;DHT22;9761;50.926;5.330;2023-01-15T09:04:42;5.80;99.90
19254;DHT22;9761;50.926;5.330;2023-01-15T09:07:10;5.80;99.90
19254;DHT22;9761;50.926;5.330;2023-01-15T09:09:37;5.80;99.90
19254;DHT22;9761;50.926;5.330;2023-01-15T09:12:04;5.90;99.90
19254;DHT22;9761;50.926;5.330;2023-01-15T09:14:34;5.90;99.90
19254;DHT22;9761;50.926;5.330;2023-01-15T09:17:03;6.00;99.90
19254;DHT22;9761;50.926;5.330;2023-01-15T09:19:31;6.00;99.90
19254;DHT22;9761;50.926;5.330;2023-01-15T09:21:57;6.00;99.90
19254;DHT22;9761;50.926;5.330;2023-01-15T09:24:25;6.00;99.90
19254;DHT22;9761;50.926;5.330;2023-01-15T09:26:52;6.00;99.90
19254;DHT22;9761;50.926;5.330;2023-01-15T09:29:19;6.10;99.90
19254;DHT22;9761;50.926;5.330;2023-01-15T09:31:47;6.10;99.90
19254;DHT22;9761;50.926;5.330;2023-01-15T09:34:15;6.20;99.90
19254;DHT22;9761;50.926;5.330;2023-01-15T09:36:42;6.20;99.90
19254;DHT22;9761;50.926;5.330;2023-01-15T09:39:11;6.20;99.90
19254;DHT22;9761;50.926;5.330;2023-01-15T09:41:53;6.20;99.90
19254;DHT22;9761;50.926;5.330;2023-01-15T09:44:38;6.30;99.90
19254;DHT22;9761;50.926;5.330;2023-01-15T09:47:14;6.20;99.90
19254;DHT22;9761;50.926;5.330;2023-01-15T09:50:15;6.30;99.90
19254;DHT22;9761;50.926;5.330;2023-01-15T09:52:58;6.30;99.90
19254;DHT22;9761;50.926;5.330;2023-01-15T09:55:30;6.30;99.90
19254;DHT22;9761;50.926;5.330;2023-01-15T09:57:59;6.40;99.90
19254;DHT22;9761;50.926;5.330;2023-01-15T10:00:33;6.40;99.90
19254;DHT22;9761;50.926;5.330;2023-01-15T10:03:06;6.40;99.90
19254;DHT22;9761;50.926;5.330;2023-01-15T10:05:37;6.50;99.90
19254;DHT22;9761;50.926;5.330;2023-01-15T10:08:11;6.50;99.90
19254;DHT22;9761;50.926;5.330;2023-01-15T10:10:44;6.50;99.90
19254;DHT22;9761;50.926;5.330;2023-01-15T10:13:18;6.60;99.90
19254;DHT22;9761;50.926;5.330;2023-01-15T10:15:50;6.50;99.90
19254;DHT22;9761;50.926;5.330;2023-01-15T10:18:20;6.60;99.90
19254;DHT22;9761;50.926;5.330;2023-01-15T10:21:05;6.60;99.90
19254;DHT22;9761;50.926;5.330;2023-01-15T10:23:41;6.50;99.90
19254;DHT22;9761;50.926;5.330;2023-01-15T10:26:16;6.50;99.90
19254;DHT22;9761;50.926;5.330;2023-01-15T10:29:01;6.60;99.90
19254;DHT22;9761;50.926;5.330;2023-01-15T10:31:49;6.60;99.90
19254;DHT22;9761;50.926;5.330;2023-01-15T10:37:41;6.70;99.90
19254;DHT22;9761;50.926;5.330;2023-01-15T10:43:21;6.70;99.90
19254;DHT22;9761;50.926;5.330;2023-01-15T10:45:56;6.60;99.90
19254;DHT22;9761;50.926;5.330;2023-01-15T10:48:31;6.50;99.90
19254;DHT22;9761;50.926;5.330;2023-01-15T10:51:13;6.50;99.90
19254;DHT22;9761;50.926;5.330;2023-01-15T10:53:47;6.50;99.90
19254;DHT22;9761;50.926;5.330;2023-01-15T10:56:27;6.50;99.90
19254;DHT22;9761;50.926;5.330;2023-01-15T10:59:00;6.60;99.90
19254;DHT22;9761;50.926;5.330;2023-01-15T11:01:30;6.60;99.90
19254;DHT22;9761;50.926;5.330;2023-01-15T11:03:58;6.60;99.90
19254;DHT22;9761;50.926;5.330;2023-01-15T11:06:30;6.60;99.90
19254;DHT22;9761;50.926;5.330;2023-01-15T11:08:58;6.50;99.90
19254;DHT22;9761;50.926;5.330;2023-01-15T11:11:40;6.40;99.90
19254;DHT22;9761;50.926;5.330;2023-01-15T11:14:34;6.40;99.90
19254;DHT22;9761;50.926;5.330;2023-01-15T11:17:20;6.30;99.90
19254;DHT22;9761;50.926;5.330;2023-01-15T11:20:15;6.20;99.90
19254;DHT22;9761;50.926;5.330;2023-01-15T11:22:43;6.20;99.90
19254;DHT22;9761;50.926;5.330;2023-01-15T11:25:13;6.30;99.90
19254;DHT22;9761;50.926;5.330;2023-01-15T11:27:51;6.30;99.90
19254;DHT22;9761;50.926;5.330;2023-01-15T11:30:26;6.40;99.90
19254;DHT22;9761;50.926;5.330;2023-01-15T11:32:55;6.50;99.90
19254;DHT22;9761;50.926;5.330;2023-01-15T11:35:23;6.60;99.90
19254;DHT22;9761;50.926;5.330;2023-01-15T11:38:01;6.70;99.90
19254;DHT22;9761;50.926;5.330;2023-01-15T11:40:29;6.70;99.90
19254;DHT22;9761;50.926;5.330;2023-01-15T11:42:57;6.70;99.90
19254;DHT22;9761;50.926;5.330;2023-01-15T11:45:48;6.80;99.90
19254;DHT22;9761;50.926;5.330;2023-01-15T11:48:41;6.90;99.90
19254;DHT22;9761;50.926;5.330;2023-01-15T11:51:27;6.90;99.90
19254;DHT22;9761;50.926;5.330;2023-01-15T11:53:59;7.00;99.90
19254;DHT22;9761;50.926;5.330;2023-01-15T11:56:30;7.10;99.90
19254;DHT22;9761;50.926;5.330;2023-01-15T11:59:01;7.10;99.90
19254;DHT22;9761;50.926;5.330;2023-01-15T12:01:32;7.10;99.90
19254;DHT22;9761;50.926;5.330;2023-01-15T12:04:02;7.10;99.90
19254;DHT22;9761;50.926;5.330;2023-01-15T12:06:33;7.20;99.90
19254;DHT22;9761;50.926;5.330;2023-01-15T12:09:06;7.10;99.90
19254;DHT22;9761;50.926;5.330;2023-01-15T12:11:46;7.20;99.90
19254;DHT22;9761;50.926;5.330;2023-01-15T12:14:40;7.30;99.90
19254;DHT22;9761;50.926;5.330;2023-01-15T12:17:42;7.40;99.90
19254;DHT22;9761;50.926;5.330;2023-01-15T12:20:22;7.40;99.90
19254;DHT22;9761;50.926;5.330;2023-01-15T12:23:05;7.40;99.90
19254;DHT22;9761;50.926;5.330;2023-01-15T12:25:50;7.30;99.90
19254;DHT22;9761;50.926;5.330;2023-01-15T12:28:35;7.30;99.90
19254;DHT22;9761;50.926;5.330;2023-01-15T12:31:09;7.30;99.90
19254;DHT22;9761;50.926;5.330;2023-01-15T12:33:44;7.30;99.90
19254;DHT22;9761;50.926;5.330;2023-01-15T12:36:14;7.40;99.90
19254;DHT22;9761;50.926;5.330;2023-01-15T12:38:49;7.50;99.90
19254;DHT22;9761;50.926;5.330;2023-01-15T12:41:24;7.50;99.90
19254;DHT22;9761;50.926;5.330;2023-01-15T12:44:17;7.50;99.90
19254;DHT22;9761;50.926;5.330;2023-01-15T12:47:05;7.40;99.90
19254;DHT22;9761;50.926;5.330;2023-01-15T12:49:38;7.40;99.90
19254;DHT22;9761;50.926;5.330;2023-01-15T12:52:10;7.40;99.90
19254;DHT22;9761;50.926;5.330;2023-01-15T12:54:50;7.40;99.90
19254;DHT22;9761;50.926;5.330;2023-01-15T12:57:25;7.30;99.90
19254;DHT22;9761;50.926;5.330;2023-01-15T13:00:03;7.40;99.90
19254;DHT22;9761;50.926;5.330;2023-01-15T13:02:37;7.40;99.90
19254;DHT22;9761;50.926;5.330;2023-01-15T13:05:17;7.40;99.90
19254;DHT22;9761;50.926;5.330;2023-01-15T13:07:51;7.40;99.90
19254;DHT22;9761;50.926;5.330;2023-01-15T13:10:21;7.30;99.90
19254;DHT22;9761;50.926;5.330;2023-01-15T13:12:48;7.20;99.90
19254;DHT22;9761;50.926;5.330;2023-01-15T13:15:20;7.40;99.90
19254;DHT22;9761;50.926;5.330;2023-01-15T13:17:58;7.30;99.90
19254;DHT22;9761;50.926;5.330;2023-01-15T13:20:42;7.40;99.90
19254;DHT22;9761;50.926;5.330;2023-01-15T13:23:26;7.30;99.90
19254;DHT22;9761;50.926;5.330;2023-01-15T13:26:08;7.30;99.90
19254;DHT22;9761;50.926;5.330;2023-01-15T13:28:54;7.40;99.90
19254;DHT22;9761;50.926;5.330;2023-01-15T13:31:43;7.40;99.90
19254;DHT22;9761;50.926;5.330;2023-01-15T13:34:21;7.40;99.90
19254;DHT22;9761;50.926;5.330;2023-01-15T13:36:51;7.40;99.90
19254;DHT22;9761;50.926;5.330;2023-01-15T13:39:21;7.40;99.90
19254;DHT22;9761;50.926;5.330;2023-01-15T13:41:50;7.50;99.90
19254;DHT22;9761;50.926;5.330;2023-01-15T13:44:37;7.50;99.90
19254;DHT22;9761;50.926;5.330;2023-01-15T13:47:11;7.50;99.90
19254;DHT22;9761;50.926;5.330;2023-01-15T13:49:47;7.50;99.90
19254;DHT22;9761;50.926;5.330;2023-01-15T13:52:22;7.60;99.90
19254;DHT22;9761;50.926;5.330;2023-01-15T13:54:51;7.60;99.90
19254;DHT22;9761;50.926;5.330;2023-01-15T13:57:25;7.60;99.90
19254;DHT22;9761;50.926;5.330;2023-01-15T14:00:33;7.50;99.90
19254;DHT22;9761;50.926;5.330;2023-01-15T14:05:53;7.40;99.90
19254;DHT22;9761;50.926;5.330;2023-01-15T14:08:25;7.40;99.90
19254;DHT22;9761;50.926;5.330;2023-01-15T14:11:02;7.50;99.90
19254;DHT22;9761;50.926;5.330;2023-01-15T14:13:57;7.50;99.90
19254;DHT22;9761;50.926;5.330;2023-01-15T14:16:48;7.50;99.90
19254;DHT22;9761;50.926;5.330;2023-01-15T14:19:50;7.50;99.90
19254;DHT22;9761;50.926;5.330;2023-01-15T14:22:49;7.40;99.90
19254;DHT22;9761;50.926;5.330;2023-01-15T14:25:34;7.40;99.90
19254;DHT22;9761;50.926;5.330;2023-01-15T14:28:19;7.50;99.90
19254;DHT22;9761;50.926;5.330;2023-01-15T14:34:03;7.30;99.90
19254;DHT22;9761;50.926;5.330;2023-01-15T14:36:38;7.30;99.90
19254;DHT22;9761;50.926;5.330;2023-01-15T14:39:25;7.30;99.90
19254;DHT22;9761;50.926;5.330;2023-01-15T14:41:57;7.20;99.90
19254;DHT22;9761;50.926;5.330;2023-01-15T14:44:43;7.20;99.90
19254;DHT22;9761;50.926;5.330;2023-01-15T14:47:21;7.30;99.90
19254;DHT22;9761;50.926;5.330;2023-01-15T14:50:00;7.20;99.90
19254;DHT22;9761;50.926;5.330;2023-01-15T14:52:30;7.20;99.90
19254;DHT22;9761;50.926;5.330;2023-01-15T14:54:57;7.10;99.90
19254;DHT22;9761;50.926;5.330;2023-01-15T14:57:27;7.10;99.90
19254;DHT22;9761;50.926;5.330;2023-01-15T14:59:56;7.00;99.90
19254;DHT22;9761;50.926;5.330;2023-01-15T15:02:32;6.90;99.90
19254;DHT22;9761;50.926;5.330;2023-01-15T15:05:01;6.80;99.90
19254;DHT22;9761;50.926;5.330;2023-01-15T15:07:41;6.90;99.90
19254;DHT22;9761;50.926;5.330;2023-01-15T15:10:17;6.90;99.90
19254;DHT22;9761;50.926;5.330;2023-01-15T15:12:48;6.90;99.90
19254;DHT22;9761;50.926;5.330;2023-01-15T15:15:20;7.00;99.90
19254;DHT22;9761;50.926;5.330;2023-01-15T15:17:58;7.00;99.90
19254;DHT22;9761;50.926;5.330;2023-01-15T15:20:32;7.00;99.90
19254;DHT22;9761;50.926;5.330;2023-01-15T15:23:09;7.00;99.90
19254;DHT22;9761;50.926;5.330;2023-01-15T15:25:38;7.10;99.90
19254;DHT22;9761;50.926;5.330;2023-01-15T15:28:09;7.10;99.90
19254;DHT22;9761;50.926;5.330;2023-01-15T15:30:42;7.10;99.90
19254;DHT22;9761;50.926;5.330;2023-01-15T15:33:15;7.10;99.90
19254;DHT22;9761;50.926;5.330;2023-01-15T15:35:46;7.10;99.90
19254;DHT22;9761;50.926;5.330;2023-01-15T15:38:16;7.10;99.90
19254;DHT22;9761;50.926;5.330;2023-01-15T15:40:46;7.10;99.90
19254;DHT22;9761;50.926;5.330;2023-01-15T15:43:17;7.10;99.90
19254;DHT22;9761;50.926;5.330;2023-01-15T15:46:25;7.10;99.90
19254;DHT22;9761;50.926;5.330;2023-01-15T15:49:10;7.10;99.90
19254;DHT22;9761;50.926;5.330;2023-01-15T15:51:39;7.10;99.90
19254;DHT22;9761;50.926;5.330;2023-01-15T15:54:17;7.00;99.90
19254;DHT22;9761;50.926;5.330;2023-01-15T15:56:50;7.00;99.90
19254;DHT22;9761;50.926;5.330;2023-01-15T15:59:29;7.00;99.90
19254;DHT22;9761;50.926;5.330;2023-01-15T16:01:59;7.00;99.90
19254;DHT22;9761;50.926;5.330;2023-01-15T16:04:43;6.90;99.90
19254;DHT22;9761;50.926;5.330;2023-01-15T16:07:19;6.90;99.90
19254;DHT22;9761;50.926;5.330;2023-01-15T16:09:51;6.90;99.90
19254;DHT22;9761;50.926;5.330;2023-01-15T16:12:19;6.90;99.90
19254;DHT22;9761;50.926;5.330;2023-01-15T16:14:47;6.80;99.90
19254;DHT22;9761;50.926;5.330;2023-01-15T16:17:14;6.80;99.90
19254;DHT22;9761;50.926;5.330;2023-01-15T16:19:42;6.80;99.90
19254;DHT22;9761;50.926;5.330;2023-01-15T16:22:15;6.70;99.90
19254;DHT22;9761;50.926;5.330;2023-01-15T16:24:57;6.70;99.90
19254;DHT22;9761;50.926;5.330;2023-01-15T16:27:28;6.60;99.90
19254;DHT22;9761;50.926;5.330;2023-01-15T16:29:56;6.60;99.90
19254;DHT22;9761;50.926;5.330;2023-01-15T16:32:29;6.60;99.90
19254;DHT22;9761;50.926;5.330;2023-01-15T16:35:02;6.60;99.90
19254;DHT22;9761;50.926;5.330;2023-01-15T16:37:30;6.60;99.90
19254;DHT22;9761;50.926;5.330;2023-01-15T16:40:02;6.60;99.90
19254;DHT22;9761;50.926;5.330;2023-01-15T16:42:34;6.70;99.90
19254;DHT22;9761;50.926;5.330;2023-01-15T16:45:03;6.70;99.90
19254;DHT22;9761;50.926;5.330;2023-01-15T16:47:33;6.60;99.90